This is the latest recevied weather packets stored in our database for station/object KC8PTQ. If no packets are shown the sender has not sent any weather packets the latest 10 day(s).
| Time | Temp. | Humidity | Pressure | Rain* | Wind** | Luminosity | Snow |
|---|---|---|---|---|---|---|---|
| 1778194100 | 12.78° C | 42% | 1013.8 hPa | 0 mm | - | 65 W/m² | - |
| 1778193797 | 12.78° C | 43% | 1013.7 hPa | 0 mm | - | 65 W/m² | - |
| 1778193493 | 12.78° C | 40% | 1013.7 hPa | 0 mm | - | 59 W/m² | - |
| 1778193189 | 13.33° C | 43% | 1013.8 hPa | 0 mm | - | 78 W/m² | - |
| 1778192887 | 13.33° C | 40% | 1013.8 hPa | 0 mm | - | 82 W/m² | - |
| 1778192583 | 13.89° C | 40% | 1013.6 hPa | 0 mm | - | 116 W/m² | - |
| 1778192280 | 13.33° C | 43% | 1013.6 hPa | 0 mm | - | 156 W/m² | - |
| 1778191976 | 13.89° C | 41% | 1013.8 hPa | 0 mm | - | 175 W/m² | - |
| 1778191672 | 13.33° C | 42% | 1014 hPa | 0 mm | - | 111 W/m² | - |
| 1778191371 | 13.33° C | 40% | 1013.8 hPa | 0 mm | - | 61 W/m² | - |
| 1778191067 | 13.33° C | 44% | 1013.6 hPa | 0 mm | - | 244 W/m² | - |
| 1778190765 | 13.89° C | 43% | 1013.5 hPa | 0 mm | - | 139 W/m² | - |
| 1778190462 | 13.89° C | 43% | 1013.6 hPa | 0 mm | - | 256 W/m² | - |
| 1778190159 | 13.89° C | 43% | 1013.7 hPa | 0 mm | - | 274 W/m² | - |
| 1778189854 | 14.44° C | 42% | 1013.6 hPa | 0 mm | - | 103 W/m² | - |
| 1778189551 | 14.44° C | 40% | 1013.6 hPa | 0 mm | - | 341 W/m² | - |
| 1778189247 | 13.89° C | 41% | 1013.7 hPa | 0 mm | - | 337 W/m² | - |
| 1778188944 | 12.78° C | 45% | 1013.5 hPa | 0 mm | - | 380 W/m² | - |
| 1778188641 | 13.33° C | 43% | 1013.5 hPa | 0 mm | - | 67 W/m² | - |
| 1778188336 | 13.33° C | 44% | 1013.3 hPa | 0 mm | - | 91 W/m² | - |
| 1778188034 | 13.89° C | 42% | 1013.3 hPa | 0 mm | - | 93 W/m² | - |
| 1778187731 | 14.44° C | 40% | 1013.5 hPa | 0 mm | - | 349 W/m² | - |
| 1778187427 | 13.89° C | 40% | 1013.3 hPa | 0 mm | - | 350 W/m² | - |
| 1778187124 | 13.89° C | 41% | 1013.3 hPa | 0 mm | - | 303 W/m² | - |
| 1778186820 | 13.89° C | 43% | 1013.2 hPa | 0 mm | - | 444 W/m² | - |
* Rain latest hour (hover to see other rain measurements)
** Current wind speed in m/s (hover to see current wind gust speed)